• Join FlightAware (Why Join?)
  • Login
  • US Flag 
10:04PM EDT


 

Airport Tracker/Info


-or-


 

Live Flight TrackerFlight Track Log ✈ SLI2119 ✈ 25-Jun-2013 ✈ MMCL / CUL - MMGL / GDL

Flight Track Log - Related Links

Times and Time Zones

All times are in EDT time to prevent confusion due to time zone crossing. See the SLI2119 flight status page for this flight to view local times or setup timezone preferences in your user account.

Time Position Orientation Groundspeed Altitude Reporting Facility
EDT Latitude Longitude Course Direction KTS MPH feet Rate Location/Type
10:21PM 22.4628 -105.1711 137° Southeast  Level Estimated
10:22PM 22.3984 -105.1082 138° Southeast  Level Estimated
10:23PM 22.3339 -105.0454 138° Southeast  Level Estimated
10:24PM 22.2695 -104.9827 138° Southeast  Level Estimated
10:25PM 22.2050 -104.9200 138° Southeast  Level Estimated
10:26PM 22.1405 -104.8574 138° Southeast  Level Estimated
10:27PM 22.0760 -104.7948 138° Southeast  Level Estimated
10:28PM 22.0114 -104.7323 138° Southeast  Level Estimated
10:29PM 21.9468 -104.6698 138° Southeast  Level Estimated
10:30PM 21.8822 -104.6074 138° Southeast  Level Estimated
10:31PM 21.8176 -104.5451 138° Southeast  Level Estimated
10:32PM 21.7529 -104.4828 138° Southeast  Level Estimated
10:33PM 21.6883 -104.4206 138° Southeast  Level Estimated
10:34PM 21.6236 -104.3584 138° Southeast  Level Estimated
10:35PM 21.5588 -104.2963 138° Southeast  Level Estimated
10:36PM 21.4941 -104.2342 138° Southeast  Level Estimated
10:37PM 21.4293 -104.1722 138° Southeast  Level Estimated
10:38PM 21.3646 -104.1103 138° Southeast  Level Estimated
10:39PM 21.2997 -104.0484 138° Southeast  Level Estimated
10:40PM 21.2349 -103.9865 138° Southeast  Level Estimated
10:41PM 21.1701 -103.9247 138° Southeast  Level Estimated
10:42PM 21.1052 -103.8630 138° Southeast  Level Estimated
10:43PM 21.0403 -103.8013 138° Southeast  Level Estimated
10:44PM 20.9754 -103.7397 138° Southeast  Level Estimated
10:45PM 20.9104 -103.6781 138° Southeast  Level Estimated
10:46PM 20.8454 -103.6166 138° Southeast  Level Estimated
10:47PM 20.7805 -103.5551 139° Southeast  Level Estimated
10:48PM 20.7155 -103.4937 139° Southeast  Level Estimated
10:49PM 20.6504 -103.4323 139° Southeast  Level Estimated
10:50PM 20.5854 -103.3710 139° Southeast  Level Estimated
10:51PM 20.5218 -103.3112 139° Southeast  Level Estimated
10:52PM 20.5218 -103.3112 90° East  Level Estimated
10:53PM 20.5218 -103.3112 90° East  Level Estimated
10:54PM 20.5218 -103.3112 90° East  Level Estimated
10:55PM 20.5218 -103.3112 90° East  Level Estimated
10:56PM 20.5218 -103.3112 90° East  Level Estimated
10:57PM 20.5218 -103.3112 90° East  Level Estimated